CheckWX is a tool to help pilots better visualize weather data.  It is not intended as a substitute for an official pre-flight weather briefing.

07:03:29 UTC

FAHS TAF
Hoedspruit Air Force Base Airport
Hoedspruit, South Africa
TAF FAHS 160600Z 1607/1618 VRB03KT CAVOK TX25/1612Z TN14/1618Z

Jun-16@
07:00 UTC

Jun-16 @ 07:00 UTC

Jun-16@
18:00 UTC

Jun-16 @ 18:00 UTC

TAF FAHS 160600Z 1607/1618 VRB03KT CAVOK TX25/1612Z TN14/1618Z
Wind
  • Variable at 3 KTS
Cloud Levels
  • No significant clouds